Time;durP1;ratioP1;P1;durP2;ratioP2;P2;SDS_P1;SDS_P2;PMS_P1;PMS_P2;Temp;Humidity;BMP_temperature;BMP_pressure;BME280_temperature;BME280_humidity;BME280_pressure;Samples;Min_cycle;Max_cycle;Signal;HPM_P1;HPM_P2
2022/07/26 00:02:54;;;;;;;;;;;;;;;26.97;33.45;99860.72;5353077;32;35814;-81
2022/07/26 00:05:57;;;;;;;;;;;;;;;26.71;33.91;99858.34;5354646;32;36648;-76
2022/07/26 00:08:59;;;;;;;;;;;;;;;26.67;34.05;99853.50;5335361;32;34013;-80
2022/07/26 00:12:01;;;;;;;;;;;;;;;26.56;34.51;99853.88;5360467;32;34054;-75
2022/07/26 00:15:04;;;;;;;;;;;;;;;27.14;33.43;99850.69;5347082;32;34143;-77
2022/07/26 00:18:06;;;;;;;;;;;;;;;26.91;33.95;99857.88;5359466;32;34668;-75
2022/07/26 00:21:12;;;;;;;;;;;;;;;26.94;33.86;99852.16;5338146;32;35300;-76
2022/07/26 00:24:14;;;;;;;;;;;;;;;26.70;34.42;99856.66;5346105;32;35268;-80
2022/07/26 00:27:16;;;;;;;;;;;;;;;26.71;32.21;99852.09;5360453;32;34860;-76
2022/07/26 00:30:18;;;;;;;;;;;;;;;27.06;33.60;99839.97;5343195;32;44513;-79
2022/07/26 00:33:20;;;;;;;;;;;;;;;26.41;34.59;99843.00;5375056;32;34487;-76
2022/07/26 00:36:22;;;;;;;;;;;;;;;26.73;29.19;99831.22;5356550;32;34496;-76
2022/07/26 00:39:24;;;;;;;;;;;;;;;27.88;27.26;99823.91;5357018;32;34670;-77
2022/07/26 00:42:26;;;;;;;;;;;;;;;27.97;26.73;99820.09;5347097;32;35787;-76
2022/07/26 00:45:28;;;;;;;;;;;;;;;27.09;31.39;99836.06;5348532;32;35449;-82
2022/07/26 00:48:29;;;;;;;;;;;;;;;27.72;29.21;99821.38;5363745;32;34866;-81
2022/07/26 00:51:31;;;;;;;;;;;;;;;27.07;29.71;99825.47;5324256;32;35525;-74
2022/07/26 00:54:33;;;;;;;;;;;;;;;27.88;28.11;99817.66;5349650;32;34485;-79
2022/07/26 00:57:35;;;;;;;;;;;;;;;27.52;28.82;99818.34;5343858;32;34266;-74
2022/07/26 01:00:37;;;;;;;;;;;;;;;26.98;30.70;99819.28;5352150;32;34547;-81
2022/07/26 01:03:39;;;;;;;;;;;;;;;26.74;31.62;99824.81;5349967;32;35548;-81
2022/07/26 01:06:41;;;;;;;;;;;;;;;27.88;28.02;99832.00;5333801;32;34268;-81
2022/07/26 01:09:43;;;;;;;;;;;;;;;26.34;31.44;99818.59;5359511;32;34728;-79
2022/07/26 01:12:45;;;;;;;;;;;;;;;26.71;31.32;99814.38;5357947;32;35173;-79
2022/07/26 01:15:47;;;;;;;;;;;;;;;26.42;32.78;99805.13;5359940;32;34759;-81
2022/07/26 01:18:49;;;;;;;;;;;;;;;26.92;30.00;99790.31;5344726;32;44726;-75
2022/07/26 01:21:51;;;;;;;;;;;;;;;26.39;33.56;99794.63;5358087;32;34847;-76
2022/07/26 01:24:53;;;;;;;;;;;;;;;26.44;34.35;99803.06;5339321;32;35336;-75
2022/07/26 01:27:55;;;;;;;;;;;;;;;26.98;33.55;99795.00;5347925;32;35176;-81
2022/07/26 01:30:57;;;;;;;;;;;;;;;26.27;32.09;99793.34;5361922;32;35256;-81
2022/07/26 01:33:59;;;;;;;;;;;;;;;26.34;34.53;99785.41;5340540;32;35089;-81
2022/07/26 01:37:00;;;;;;;;;;;;;;;25.95;36.43;99785.41;5360447;32;35177;-76
2022/07/26 01:40:03;;;;;;;;;;;;;;;26.58;34.45;99785.31;5356558;32;35063;-75
2022/07/26 01:43:05;;;;;;;;;;;;;;;26.67;33.48;99778.03;5362578;32;34886;-76
2022/07/26 01:46:07;;;;;;;;;;;;;;;26.01;35.54;99774.78;5349850;32;35845;-75
2022/07/26 01:49:09;;;;;;;;;;;;;;;25.93;35.73;99774.81;5338139;32;35258;-80
2022/07/26 01:52:11;;;;;;;;;;;;;;;25.83;36.22;99758.03;5350403;32;36177;-80
2022/07/26 01:55:13;;;;;;;;;;;;;;;26.53;35.11;99766.13;5349774;32;37077;-75
2022/07/26 01:58:15;;;;;;;;;;;;;;;26.78;34.44;99766.81;5361227;32;35349;-80
2022/07/26 02:01:17;;;;;;;;;;;;;;;27.07;34.02;99754.50;5341660;32;34850;-81
2022/07/26 02:04:57;;;;;;;;;;;;;;;26.15;35.71;99754.38;5337597;32;35533;-74
2022/07/26 02:07:59;;;;;;;;;;;;;;;26.84;34.25;99752.62;5355579;32;34785;-74
2022/07/26 02:11:02;;;;;;;;;;;;;;;26.82;34.50;99762.75;5330992;32;34155;-81
2022/07/26 02:14:04;;;;;;;;;;;;;;;25.48;37.00;99765.47;5374990;32;34900;-80
2022/07/26 02:17:07;;;;;;;;;;;;;;;25.41;37.83;99771.72;5346741;32;34467;-76
2022/07/26 02:20:09;;;;;;;;;;;;;;;25.63;37.46;99757.53;5360052;32;34725;-82
2022/07/26 02:23:11;;;;;;;;;;;;;;;26.00;35.22;99761.50;5335229;32;34769;-80
2022/07/26 02:26:13;;;;;;;;;;;;;;;25.30;37.47;99762.97;5345112;32;34737;-80
2022/07/26 02:29:15;;;;;;;;;;;;;;;26.27;34.43;99769.09;5364028;32;34583;-76
2022/07/26 02:32:17;;;;;;;;;;;;;;;25.66;36.22;99765.28;5345637;32;35378;-75
2022/07/26 02:35:19;;;;;;;;;;;;;;;25.00;38.16;99760.97;5373571;32;44596;-80
2022/07/26 02:38:21;;;;;;;;;;;;;;;24.67;38.52;99763.63;5340930;32;36643;-80
2022/07/26 02:41:25;;;;;;;;;;;;;;;25.53;37.90;99773.88;5350780;32;35097;-75
2022/07/26 02:44:28;;;;;;;;;;;;;;;26.33;34.59;99768.41;5341611;32;37505;-75
2022/07/26 02:47:31;;;;;;;;;;;;;;;25.80;34.91;99772.66;5324069;32;34278;-75
2022/07/26 02:50:33;;;;;;;;;;;;;;;25.54;36.03;99777.41;5333213;32;35211;-82
2022/07/26 02:53:35;;;;;;;;;;;;;;;24.98;37.09;99777.25;5342685;32;34066;-74
2022/07/26 02:56:37;;;;;;;;;;;;;;;25.27;35.51;99779.47;5362784;32;34906;-74
2022/07/26 02:59:39;;;;;;;;;;;;;;;24.95;37.06;99776.75;5352717;32;33953;-80
2022/07/26 03:02:41;;;;;;;;;;;;;;;25.00;37.88;99783.31;5356376;32;35758;-74
2022/07/26 03:05:43;;;;;;;;;;;;;;;24.97;39.23;99775.56;5349181;32;33304;-79
2022/07/26 03:08:46;;;;;;;;;;;;;;;24.67;40.17;99773.53;5348315;32;34610;-80
2022/07/26 03:11:47;;;;;;;;;;;;;;;24.96;40.44;99764.97;5361943;32;44500;-76
2022/07/26 03:14:49;;;;;;;;;;;;;;;25.08;39.91;99761.81;5346442;32;34909;-75
2022/07/26 03:17:51;;;;;;;;;;;;;;;25.73;37.58;99766.31;5363845;32;35424;-81
2022/07/26 03:20:54;;;;;;;;;;;;;;;25.45;38.61;99765.00;5339245;32;35410;-75
2022/07/26 03:23:56;;;;;;;;;;;;;;;25.90;37.59;99776.00;5362345;32;35334;-76
2022/07/26 03:26:58;;;;;;;;;;;;;;;25.17;39.53;99776.09;5364984;32;34702;-83
2022/07/26 03:30:00;;;;;;;;;;;;;;;25.74;39.56;99772.53;5346481;32;35054;-80
2022/07/26 03:33:02;;;;;;;;;;;;;;;24.88;41.81;99786.50;5369251;32;35086;-81
2022/07/26 03:36:04;;;;;;;;;;;;;;;25.25;41.08;99778.81;5344566;32;34580;-75
2022/07/26 03:39:12;;;;;;;;;;;;;;;25.17;41.72;99781.47;5360140;32;36308;-74
2022/07/26 03:42:14;;;;;;;;;;;;;;;24.64;43.43;99777.38;5353422;32;35591;-74
2022/07/26 03:45:17;;;;;;;;;;;;;;;24.73;43.62;99781.78;5352032;32;34795;-74
2022/07/26 03:48:19;;;;;;;;;;;;;;;25.57;41.51;99774.41;5357077;32;45477;-75
2022/07/26 03:51:20;;;;;;;;;;;;;;;25.04;42.28;99771.22;5326404;32;35053;-76
2022/07/26 03:54:22;;;;;;;;;;;;;;;24.71;42.34;99778.41;5362694;32;34779;-75
2022/07/26 03:57:24;;;;;;;;;;;;;;;24.59;42.74;99768.97;5345862;32;35088;-75
2022/07/26 04:00:29;;;;;;;;;;;;;;;25.17;41.17;99768.03;5342417;32;34275;-80
2022/07/26 04:03:30;;;;;;;;;;;;;;;26.09;37.73;99766.69;5342534;32;34231;-81
2022/07/26 04:06:32;;;;;;;;;;;;;;;25.11;39.18;99758.78;5349530;32;34813;-80
2022/07/26 04:09:35;;;;;;;;;;;;;;;24.80;39.76;99763.97;5355097;32;34646;-76
2022/07/26 04:12:37;;;;;;;;;;;;;;;24.74;39.82;99748.53;5345881;32;34865;-81
2022/07/26 04:15:39;;;;;;;;;;;;;;;24.87;40.24;99744.50;5362475;32;35793;-80
2022/07/26 04:18:41;;;;;;;;;;;;;;;25.11;39.97;99741.81;5346047;32;34895;-74
2022/07/26 04:21:43;;;;;;;;;;;;;;;26.25;37.75;99746.06;5359751;32;34688;-75
2022/07/26 04:24:45;;;;;;;;;;;;;;;26.38;37.51;99749.03;5345215;32;34470;-81
2022/07/26 04:27:47;;;;;;;;;;;;;;;25.60;38.74;99755.19;5348801;32;35262;-80
2022/07/26 04:30:49;;;;;;;;;;;;;;;25.32;39.58;99744.00;5358832;32;45770;-76
2022/07/26 04:33:51;;;;;;;;;;;;;;;26.31;37.47;99745.38;5350397;32;35171;-82
2022/07/26 04:36:53;;;;;;;;;;;;;;;26.08;38.00;99743.47;5356067;32;35048;-76
2022/07/26 04:39:55;;;;;;;;;;;;;;;26.37;37.72;99750.88;5341854;32;35053;-83
2022/07/26 04:42:56;;;;;;;;;;;;;;;25.99;36.95;99749.87;5363097;32;34326;-75
2022/07/26 04:45:59;;;;;;;;;;;;;;;26.95;35.17;99768.38;5345652;32;35160;-74
2022/07/26 04:49:01;;;;;;;;;;;;;;;27.33;33.49;99792.72;5351676;32;34495;-81
2022/07/26 04:52:03;;;;;;;;;;;;;;;27.09;33.19;99817.19;5344123;32;34559;-75
2022/07/26 04:55:05;;;;;;;;;;;;;;;27.12;32.58;99833.03;5332366;32;34031;-81
2022/07/26 04:58:08;;;;;;;;;;;;;;;25.77;33.13;99805.31;5358991;32;35562;-75
2022/07/26 05:01:10;;;;;;;;;;;;;;;25.20;34.03;99780.31;5339922;32;34890;-81
2022/07/26 05:04:12;;;;;;;;;;;;;;;26.09;32.59;99788.22;5359291;32;35037;-82
2022/07/26 05:07:14;;;;;;;;;;;;;;;26.56;31.44;99800.81;5337437;32;35023;-72
2022/07/26 05:10:16;;;;;;;;;;;;;;;26.41;31.54;99805.28;5346200;32;34866;-73
2022/07/26 05:13:18;;;;;;;;;;;;;;;26.89;31.14;99812.25;5361052;32;42733;-72
2022/07/26 05:16:31;;;;;;;;;;;;;;;26.13;32.13;99796.78;5343579;32;34431;-69
2022/07/26 05:19:33;;;;;;;;;;;;;;;26.46;31.65;99806.41;5353829;32;34417;-71
2022/07/26 05:22:35;;;;;;;;;;;;;;;26.84;31.30;99801.16;5348926;32;34710;-74
2022/07/26 05:25:38;;;;;;;;;;;;;;;28.17;29.16;99795.22;5353277;32;34831;-69
2022/07/26 05:28:39;;;;;;;;;;;;;;;28.50;28.26;99791.09;5341391;32;36659;-70
2022/07/26 05:31:41;;;;;;;;;;;;;;;29.06;27.63;99794.00;5327833;32;36053;-72
2022/07/26 05:34:43;;;;;;;;;;;;;;;28.32;29.06;99799.59;5351461;32;35625;-72
2022/07/26 05:37:45;;;;;;;;;;;;;;;28.51;29.25;99798.16;5342676;32;34183;-75
2022/07/26 05:40:47;;;;;;;;;;;;;;;28.92;28.48;99794.03;5356389;32;44711;-76
2022/07/26 05:43:51;;;;;;;;;;;;;;;28.88;28.54;99798.97;5342588;32;43028;-69
2022/07/26 05:46:53;;;;;;;;;;;;;;;29.52;27.78;99793.56;5348769;32;34450;-69
2022/07/26 05:49:55;;;;;;;;;;;;;;;31.18;25.04;99787.00;5324597;32;34340;-76
2022/07/26 05:52:57;;;;;;;;;;;;;;;30.47;25.91;99783.91;5333344;32;36024;-76
2022/07/26 05:55:59;;;;;;;;;;;;;;;30.85;25.50;99784.25;5358267;32;34219;-75
2022/07/26 05:59:01;;;;;;;;;;;;;;;31.89;24.30;99778.19;5341023;32;35506;-76
2022/07/26 06:02:03;;;;;;;;;;;;;;;32.73;23.29;99779.94;5349952;32;34251;-76
2022/07/26 06:05:05;;;;;;;;;;;;;;;32.01;24.26;99781.94;5346950;32;35717;-73
2022/07/26 06:08:06;;;;;;;;;;;;;;;32.39;23.95;99786.59;5349445;32;34908;-74
2022/07/26 06:11:08;;;;;;;;;;;;;;;32.33;24.11;99796.50;5345251;32;36242;-72
2022/07/26 06:14:10;;;;;;;;;;;;;;;32.86;24.32;99796.22;5348266;32;34536;-73
2022/07/26 06:17:13;;;;;;;;;;;;;;;33.66;24.66;99793.69;5353970;32;35837;-78
2022/07/26 06:20:15;;;;;;;;;;;;;;;33.91;26.09;99785.50;5347790;32;35666;-75
2022/07/26 06:23:17;;;;;;;;;;;;;;;33.25;27.66;99796.16;5354118;32;34888;-77
2022/07/26 06:26:35;;;;;;;;;;;;;;;33.66;27.54;99774.63;5340669;32;34129;-71
2022/07/26 06:29:37;;;;;;;;;;;;;;;33.10;28.48;99780.13;5350353;32;34113;-73
2022/07/26 06:32:43;;;;;;;;;;;;;;;31.55;31.45;99781.97;5357250;32;35887;-80
2022/07/26 06:35:45;;;;;;;;;;;;;;;31.83;31.97;99779.06;5346629;32;35077;-72
2022/07/26 06:38:48;;;;;;;;;;;;;;;31.52;32.68;99775.09;5358704;32;35345;-75
2022/07/26 06:41:50;;;;;;;;;;;;;;;31.89;32.00;99771.94;5341856;32;43243;-78
2022/07/26 06:44:52;;;;;;;;;;;;;;;31.50;32.87;99779.09;5355632;32;34953;-72
2022/07/26 06:47:54;;;;;;;;;;;;;;;31.80;32.56;99780.28;5343191;32;33775;-77
2022/07/26 06:50:56;;;;;;;;;;;;;;;31.93;32.50;99781.31;5321845;32;35198;-75
2022/07/26 06:53:59;;;;;;;;;;;;;;;32.86;30.84;99774.44;5350712;32;35017;-75
2022/07/26 06:57:05;;;;;;;;;;;;;;;32.05;32.31;99776.88;5339755;32;33609;-80
2022/07/26 07:00:07;;;;;;;;;;;;;;;31.86;32.43;99765.03;5362026;32;34728;-76
2022/07/26 07:03:09;;;;;;;;;;;;;;;30.81;34.23;99776.72;5344973;32;35179;-72
2022/07/26 07:06:11;;;;;;;;;;;;;;;31.47;33.15;99768.62;5358558;32;34243;-71
2022/07/26 07:09:14;;;;;;;;;;;;;;;31.66;32.74;99767.75;5346082;32;34322;-76
2022/07/26 07:12:16;;;;;;;;;;;;;;;32.74;30.98;99759.00;5344674;32;38303;-84
2022/07/26 07:15:18;;;;;;;;;;;;;;;33.41;30.14;99757.47;5358463;32;44534;-74
2022/07/26 07:18:20;;;;;;;;;;;;;;;32.28;31.75;99750.03;5343645;32;34335;-72
2022/07/26 07:21:22;;;;;;;;;;;;;;;32.26;32.28;99752.13;5357389;32;34283;-69
2022/07/26 07:24:24;;;;;;;;;;;;;;;32.85;31.21;99750.16;5343228;32;34266;-72
2022/07/26 07:27:26;;;;;;;;;;;;;;;32.40;31.64;99749.41;5331130;32;891775;-76
2022/07/26 07:30:28;;;;;;;;;;;;;;;33.02;30.71;99745.03;5347955;32;36958;-89
2022/07/26 07:33:30;;;;;;;;;;;;;;;32.75;31.12;99750.63;5345547;32;35312;-76
2022/07/26 07:36:52;;;;;;;;;;;;;;;33.48;30.07;99747.34;5354914;32;44864;-82
2022/07/26 07:39:55;;;;;;;;;;;;;;;32.99;31.02;99767.25;5334539;32;35509;-74
2022/07/26 07:42:57;;;;;;;;;;;;;;;33.17;30.64;99759.16;5364844;32;34234;-71
2022/07/26 07:45:59;;;;;;;;;;;;;;;34.37;29.18;99758.72;5346578;32;35640;-77
2022/07/26 07:49:01;;;;;;;;;;;;;;;32.97;31.09;99753.00;5335246;32;33814;-75
2022/07/26 07:52:04;;;;;;;;;;;;;;;34.93;28.21;99757.56;5342576;32;34256;-81
2022/07/26 07:55:07;;;;;;;;;;;;;;;35.09;28.03;99756.87;5330229;32;34149;-77
2022/07/26 07:58:29;;;;;;;;;;;;;;;34.80;28.49;99758.56;5357958;32;34914;-83
2022/07/26 08:01:31;;;;;;;;;;;;;;;32.75;31.75;99750.63;5344169;32;35118;-80
2022/07/26 08:04:41;;;;;;;;;;;;;;;34.39;29.42;99749.28;5359494;32;33398;-85
2022/07/26 08:07:43;;;;;;;;;;;;;;;33.73;30.39;99758.22;5341724;32;35665;-84
2022/07/26 08:10:45;;;;;;;;;;;;;;;33.59;30.33;99756.69;5340630;32;35370;-77
2022/07/26 08:13:53;;;;;;;;;;;;;;;34.29;29.73;99773.53;5360126;32;44491;-77
2022/07/26 08:16:55;;;;;;;;;;;;;;;34.73;29.44;99776.94;5346279;32;36775;-79
2022/07/26 08:19:57;;;;;;;;;;;;;;;34.49;29.43;99776.03;5351331;32;34411;-79
2022/07/26 08:23:01;;;;;;;;;;;;;;;32.91;32.02;99787.37;5341344;32;33759;-84
2022/07/26 08:26:03;;;;;;;;;;;;;;;33.07;31.99;99780.59;5350637;32;33313;-79
2022/07/26 08:29:07;;;;;;;;;;;;;;;32.28;33.72;99777.22;5348052;32;33912;-71
2022/07/26 08:32:09;;;;;;;;;;;;;;;31.61;35.14;99766.72;5342518;32;36037;-74
2022/07/26 08:35:11;;;;;;;;;;;;;;;32.42;34.00;99758.16;5355875;32;36741;-78
2022/07/26 08:38:20;;;;;;;;;;;;;;;32.50;33.91;99775.03;5341346;32;46467;-87
2022/07/26 08:41:24;;;;;;;;;;;;;;;32.13;34.55;99773.91;5369552;32;34481;-79
2022/07/26 08:44:26;;;;;;;;;;;;;;;32.84;33.39;99767.50;5349259;32;34368;-72
2022/07/26 08:47:28;;;;;;;;;;;;;;;31.83;35.65;99762.75;5347932;32;35463;-71
2022/07/26 08:50:43;;;;;;;;;;;;;;;31.97;35.06;99768.97;5342033;32;34158;-72
2022/07/26 08:53:48;;;;;;;;;;;;;;;33.68;32.20;99756.19;5347611;32;44231;-78
2022/07/26 08:56:51;;;;;;;;;;;;;;;33.28;32.64;99771.19;5353934;32;35258;-85
2022/07/26 09:00:11;;;;;;;;;;;;;;;32.81;33.85;99771.53;5352147;32;35767;-89
2022/07/26 09:03:25;;;;;;;;;;;;;;;32.50;34.43;99775.03;5353499;32;34687;-73
2022/07/26 09:06:28;;;;;;;;;;;;;;;32.20;34.85;99763.03;5351845;32;35156;-73
2022/07/26 09:09:31;;;;;;;;;;;;;;;32.13;34.72;99782.06;5345853;32;33839;-74
2022/07/26 09:12:33;;;;;;;;;;;;;;;32.94;33.76;99786.13;5356635;32;34243;-74
2022/07/26 09:15:35;;;;;;;;;;;;;;;32.49;34.24;99783.44;5344432;32;37339;-70
2022/07/26 09:18:37;;;;;;;;;;;;;;;33.66;32.26;99776.53;5359550;32;34081;-71
2022/07/26 09:21:39;;;;;;;;;;;;;;;33.74;31.61;99778.94;5342104;32;37673;-86
2022/07/26 09:24:43;;;;;;;;;;;;;;;33.04;33.48;99789.16;5343640;32;36239;-76
2022/07/26 09:27:44;;;;;;;;;;;;;;;31.06;36.75;99809.53;5359968;32;34410;-74
2022/07/26 09:30:51;;;;;;;;;;;;;;;32.19;34.30;99816.56;5349105;32;34540;-75
2022/07/26 09:33:53;;;;;;;;;;;;;;;31.65;35.74;99823.13;5360102;32;44576;-76
2022/07/26 09:36:55;;;;;;;;;;;;;;;32.01;34.72;99824.56;5344101;32;35703;-75
2022/07/26 09:39:58;;;;;;;;;;;;;;;31.52;35.70;99847.59;5363478;32;34195;-89
2022/07/26 09:43:05;;;;;;;;;;;;;;;30.23;37.15;99863.03;5362591;32;37060;-89
2022/07/26 09:46:09;;;;;;;;;;;;;;;31.66;35.28;99879.13;5341491;32;37228;-74
2022/07/26 09:49:15;;;;;;;;;;;;;;;30.40;37.59;99905.03;5353422;32;35832;-74
2022/07/26 09:52:18;;;;;;;;;;;;;;;30.17;38.53;99913.44;5340218;32;42486;-76
2022/07/26 09:55:20;;;;;;;;;;;;;;;29.99;39.31;99930.16;5365969;32;34497;-76
2022/07/26 09:58:23;;;;;;;;;;;;;;;28.89;45.21;99938.59;5349633;32;35451;-73
2022/07/26 10:01:24;;;;;;;;;;;;;;;28.60;46.12;99921.41;5352352;32;34326;-76
2022/07/26 10:04:27;;;;;;;;;;;;;;;28.22;48.75;99904.41;5355735;32;34486;-73
2022/07/26 10:07:29;;;;;;;;;;;;;;;27.41;52.08;99921.31;5349630;32;34152;-76
2022/07/26 10:10:32;;;;;;;;;;;;;;;27.00;53.58;99927.78;5373221;32;35500;-75
2022/07/26 10:13:36;;;;;;;;;;;;;;;26.20;56.69;99953.97;5351895;32;34177;-73
2022/07/26 10:16:39;;;;;;;;;;;;;;;25.32;61.20;99951.09;5358417;32;36554;-73
2022/07/26 10:19:41;;;;;;;;;;;;;;;25.24;63.20;99892.75;5336819;32;35547;-72
2022/07/26 10:22:49;;;;;;;;;;;;;;;24.39;69.09;99832.87;5351580;32;44764;-78
2022/07/26 10:25:51;;;;;;;;;;;;;;;24.23;72.06;99865.84;5370855;32;35005;-79
2022/07/26 10:28:53;;;;;;;;;;;;;;;24.53;71.24;99894.03;5352537;32;35543;-72
2022/07/26 10:32:01;;;;;;;;;;;;;;;24.19;72.33;99915.47;5357014;32;34229;-80
2022/07/26 10:35:23;;;;;;;;;;;;;;;24.11;75.52;99928.03;5349157;32;34276;-73
2022/07/26 10:38:25;;;;;;;;;;;;;;;23.98;75.97;99929.28;5360035;32;44727;-74
2022/07/26 10:41:34;;;;;;;;;;;;;;;25.21;69.82;99949.56;5346372;32;34580;-73
2022/07/26 10:44:40;;;;;;;;;;;;;;;25.04;71.14;99945.97;5345987;32;34934;-82
2022/07/26 10:48:03;;;;;;;;;;;;;;;24.92;72.39;99952.63;5362258;32;36037;-79
2022/07/26 10:51:05;;;;;;;;;;;;;;;25.13;69.88;99957.63;5327241;32;34427;-71
2022/07/26 10:54:08;;;;;;;;;;;;;;;25.23;69.07;99963.66;5365051;32;35483;-73
2022/07/26 10:57:11;;;;;;;;;;;;;;;25.71;68.56;99969.31;5351517;32;35025;-79
2022/07/26 11:00:17;;;;;;;;;;;;;;;25.05;67.84;99965.63;5347179;32;33653;-77
2022/07/26 11:03:22;;;;;;;;;;;;;;;25.05;67.95;99954.87;5357209;32;45062;-75
2022/07/26 11:06:26;;;;;;;;;;;;;;;24.31;73.11;99942.91;5344179;32;34865;-83
2022/07/26 11:09:32;;;;;;;;;;;;;;;25.33;70.07;99953.63;5364966;32;35151;-73
2022/07/26 11:12:35;;;;;;;;;;;;;;;25.79;64.97;99966.66;5345340;32;34210;-80
2022/07/26 11:15:47;;;;;;;;;;;;;;;26.02;65.58;99973.03;5356200;32;34243;-81
2022/07/26 11:18:51;;;;;;;;;;;;;;;25.62;65.63;99979.19;5355776;32;42741;-86
2022/07/26 11:21:54;;;;;;;;;;;;;;;25.01;67.32;99980.41;5348779;32;35672;-73
2022/07/26 11:24:56;;;;;;;;;;;;;;;24.75;68.45;99986.66;5360399;32;34516;-71
2022/07/26 11:27:58;;;;;;;;;;;;;;;25.06;67.57;99978.94;5346593;32;34317;-74
2022/07/26 11:31:01;;;;;;;;;;;;;;;24.72;69.05;99962.78;5361692;32;33734;-80
2022/07/26 11:34:05;;;;;;;;;;;;;;;25.00;68.68;99959.91;5359380;32;34056;-76
2022/07/26 11:37:12;;;;;;;;;;;;;;;25.34;67.85;99955.31;5346371;32;37503;-77
2022/07/26 11:40:13;;;;;;;;;;;;;;;25.93;64.87;99944.44;5362421;32;34347;-81
2022/07/26 11:43:15;;;;;;;;;;;;;;;25.19;66.50;99948.06;5352528;32;35042;-87
2022/07/26 11:46:18;;;;;;;;;;;;;;;25.14;65.68;99948.53;5361407;32;43392;-77
2022/07/26 11:49:21;;;;;;;;;;;;;;;25.36;64.92;99957.81;5336013;32;34721;-79
2022/07/26 11:52:31;;;;;;;;;;;;;;;26.02;61.72;99961.41;5347450;32;35195;-78
2022/07/26 11:55:34;;;;;;;;;;;;;;;25.62;63.93;99961.22;5351693;32;34187;-78
2022/07/26 11:58:38;;;;;;;;;;;;;;;25.76;61.90;99959.75;5340778;32;35401;-80
2022/07/26 12:01:40;;;;;;;;;;;;;;;26.24;61.44;99952.63;5356500;32;36012;-77
2022/07/26 12:05:08;;;;;;;;;;;;;;;25.87;62.09;99937.84;5341460;32;44574;-77
2022/07/26 12:08:10;;;;;;;;;;;;;;;25.38;63.71;99955.81;5361191;32;34753;-77
2022/07/26 12:11:13;;;;;;;;;;;;;;;25.96;61.04;99952.19;5346817;32;35313;-77
2022/07/26 12:14:23;;;;;;;;;;;;;;;25.87;60.78;99951.31;5351410;32;35358;-77
2022/07/26 12:17:25;;;;;;;;;;;;;;;25.20;64.10;99958.62;5370807;32;45992;-74
2022/07/26 12:20:35;;;;;;;;;;;;;;;25.39;63.52;99952.97;5345594;32;34162;-79
2022/07/26 12:23:41;;;;;;;;;;;;;;;25.24;64.39;99943.00;5356958;32;34054;-74
2022/07/26 12:26:43;;;;;;;;;;;;;;;24.73;66.41;99951.06;5337945;32;34262;-78
2022/07/26 12:29:46;;;;;;;;;;;;;;;25.45;64.07;99945.25;5355265;32;32809;-81
2022/07/26 12:32:50;;;;;;;;;;;;;;;25.53;62.79;99942.56;5350332;32;42905;-76
2022/07/26 12:36:00;;;;;;;;;;;;;;;25.62;62.77;99938.84;5344772;32;35919;-82
2022/07/26 12:39:04;;;;;;;;;;;;;;;25.97;61.44;99940.41;5357306;32;34346;-76
2022/07/26 12:42:19;;;;;;;;;;;;;;;25.26;63.77;99936.47;5342583;32;34160;-83
2022/07/26 12:45:32;;;;;;;;;;;;;;;25.11;64.46;99935.41;5340535;32;46183;-82
2022/07/26 12:48:35;;;;;;;;;;;;;;;26.22;60.10;99937.66;5334144;32;36090;-83
2022/07/26 12:51:38;;;;;;;;;;;;;;;25.84;61.15;99940.91;5322659;32;34937;-80
2022/07/26 12:54:40;;;;;;;;;;;;;;;26.12;59.99;99944.06;5356685;32;34096;-73
2022/07/26 12:57:42;;;;;;;;;;;;;;;26.58;58.17;99948.84;5350066;32;35484;-74
2022/07/26 13:00:48;;;;;;;;;;;;;;;26.15;60.01;99943.75;5356515;32;43948;-74
2022/07/26 13:03:50;;;;;;;;;;;;;;;26.02;60.15;99929.97;5341090;32;34328;-73
2022/07/26 13:06:52;;;;;;;;;;;;;;;25.81;60.45;99938.53;5350310;32;35462;-76
2022/07/26 13:09:54;;;;;;;;;;;;;;;26.12;59.74;99937.84;5349048;32;34195;-75
2022/07/26 13:13:16;;;;;;;;;;;;;;;26.55;58.62;99935.75;5343704;32;35094;-75
2022/07/26 13:16:18;;;;;;;;;;;;;;;25.80;60.40;99926.09;5354768;32;46188;-82
2022/07/26 13:19:20;;;;;;;;;;;;;;;26.20;59.74;99930.56;5342604;32;37008;-80
2022/07/26 13:22:22;;;;;;;;;;;;;;;26.87;56.81;99932.91;5370000;32;34135;-92
2022/07/26 13:25:24;;;;;;;;;;;;;;;26.64;57.92;99938.22;5334618;32;34623;-73
2022/07/26 13:28:39;;;;;;;;;;;;;;;26.70;56.33;99939.37;5347066;32;34470;-74
2022/07/26 13:31:41;;;;;;;;;;;;;;;27.93;53.05;99929.50;5358920;32;34633;-83
2022/07/26 13:34:43;;;;;;;;;;;;;;;26.55;56.74;99936.59;5335611;32;35240;-91
2022/07/26 13:37:46;;;;;;;;;;;;;;;26.46;57.22;99945.69;5368711;32;34168;-78
2022/07/26 13:40:49;;;;;;;;;;;;;;;26.75;56.12;99955.03;5342593;32;45110;-89
2022/07/26 13:43:52;;;;;;;;;;;;;;;26.93;55.54;99948.37;5363638;32;35371;-81
2022/07/26 13:46:54;;;;;;;;;;;;;;;26.28;57.25;99942.38;5354833;32;37800;-78
2022/07/26 13:49:57;;;;;;;;;;;;;;;25.96;58.63;99952.19;5333843;32;34295;-89
2022/07/26 13:52:58;;;;;;;;;;;;;;;26.51;57.33;99959.50;5350189;32;35677;-74
2022/07/26 13:56:01;;;;;;;;;;;;;;;26.24;57.23;99952.63;5340672;32;34922;-81
2022/07/26 13:59:03;;;;;;;;;;;;;;;27.00;54.75;99945.81;5354038;32;34345;-76
2022/07/26 14:02:06;;;;;;;;;;;;;;;27.51;53.81;99957.00;5342450;32;34164;-76
2022/07/26 14:05:08;;;;;;;;;;;;;;;26.61;56.34;99960.16;5348040;32;35166;-78
2022/07/26 14:08:10;;;;;;;;;;;;;;;27.01;54.68;99966.38;5349388;32;34684;-77
2022/07/26 14:11:12;;;;;;;;;;;;;;;27.10;54.21;99959.94;5338492;32;35020;-79
2022/07/26 14:14:14;;;;;;;;;;;;;;;26.14;57.63;99970.81;5344436;32;34517;-76
2022/07/26 14:17:16;;;;;;;;;;;;;;;26.53;57.00;99973.62;5333875;32;34907;-78
2022/07/26 14:20:18;;;;;;;;;;;;;;;26.95;55.58;99964.38;5356290;32;45102;-77
2022/07/26 14:23:21;;;;;;;;;;;;;;;26.88;55.59;99966.94;5335863;32;34668;-77
2022/07/26 14:26:24;;;;;;;;;;;;;;;26.67;55.96;99964.00;5349528;32;35534;-75
2022/07/26 14:29:27;;;;;;;;;;;;;;;26.65;56.64;99952.53;5349017;32;34865;-79
2022/07/26 14:32:29;;;;;;;;;;;;;;;28.05;52.52;99948.81;5341673;32;35027;-76
2022/07/26 14:35:31;;;;;;;;;;;;;;;27.94;52.87;99955.50;5359625;32;34821;-76
2022/07/26 14:38:33;;;;;;;;;;;;;;;27.42;54.33;99960.75;5341249;32;34726;-76
2022/07/26 14:41:35;;;;;;;;;;;;;;;27.40;54.46;99954.72;5357273;32;34864;-77
2022/07/26 14:44:37;;;;;;;;;;;;;;;27.90;52.76;99951.50;5345151;32;34769;-77
2022/07/26 14:47:45;;;;;;;;;;;;;;;27.13;55.20;99958.78;5362991;32;34627;-78
2022/07/26 14:50:47;;;;;;;;;;;;;;;28.25;52.05;99938.31;5340794;32;35511;-75
2022/07/26 14:54:09;;;;;;;;;;;;;;;27.91;52.89;99952.34;5344232;32;35354;-78
2022/07/26 14:57:12;;;;;;;;;;;;;;;27.83;52.82;99945.16;5353921;32;34770;-77
2022/07/26 15:00:15;;;;;;;;;;;;;;;27.44;53.32;99950.66;5343243;32;34898;-78
2022/07/26 15:03:17;;;;;;;;;;;;;;;28.00;51.31;99941.25;5359323;32;35546;-77
2022/07/26 15:06:19;;;;;;;;;;;;;;;28.15;50.85;99948.56;5340547;32;45563;-75
2022/07/26 15:09:20;;;;;;;;;;;;;;;27.67;51.79;99951.47;5340638;32;34992;-78
2022/07/26 15:12:22;;;;;;;;;;;;;;;27.18;53.57;99946.44;5365428;32;35287;-79
2022/07/26 15:15:24;;;;;;;;;;;;;;;27.62;52.66;99942.22;5344513;32;34824;-77
2022/07/26 15:18:26;;;;;;;;;;;;;;;28.03;51.39;99932.78;5361724;32;35227;-77
2022/07/26 15:21:28;;;;;;;;;;;;;;;27.86;51.72;99938.53;5332073;32;34716;-78
2022/07/26 15:24:30;;;;;;;;;;;;;;;27.57;52.86;99937.41;5356592;32;34495;-77
2022/07/26 15:27:40;;;;;;;;;;;;;;;27.54;52.92;99929.66;5346366;32;34512;-77
2022/07/26 15:30:42;;;;;;;;;;;;;;;26.77;55.23;99924.19;5358293;32;34006;-75
2022/07/26 15:33:44;;;;;;;;;;;;;;;27.79;52.98;99927.63;5364358;32;34898;-74
2022/07/26 15:36:46;;;;;;;;;;;;;;;27.81;52.54;99930.97;5340436;32;35258;-78
2022/07/26 15:39:48;;;;;;;;;;;;;;;27.69;52.81;99916.22;5361081;32;44944;-76
2022/07/26 15:42:52;;;;;;;;;;;;;;;28.16;51.10;99909.72;5348785;32;34760;-77
2022/07/26 15:45:56;;;;;;;;;;;;;;;27.48;52.84;99904.22;5356765;32;34150;-76
2022/07/26 15:49:00;;;;;;;;;;;;;;;28.10;51.44;99902.34;5346441;32;34365;-77
2022/07/26 15:52:03;;;;;;;;;;;;;;;27.75;52.07;99915.50;5342786;32;34559;-77
2022/07/26 15:55:06;;;;;;;;;;;;;;;27.43;52.70;99900.38;5362125;32;33738;-78
2022/07/26 15:58:07;;;;;;;;;;;;;;;26.96;53.75;99904.88;5342981;32;32876;-78